Hull, Texas
Current Conditions -  °F | °C
As of 3:35 PM on Friday 28 Nov 2014 (Local Time) from K6R3 Reporting Station
Overcast Overcast  
Wind Chill: 67°   Ceiling: 3600
Heat Index: 67°   Visibility: 7mi
Dew Point: 56°   Wind: 13mph
Humidity: 68%   Direction: 170°S
Pressure: 30.2"   Gusts: 17mph
Location:  30.15°N, 94.64°W
Report Text: K6R3 282135Z AUTO 17011G15KT 7SM BKN036 OVC050 20/14 A3020 RMK AO2 T01970136
Loading
Personal Weather Stations






























Interactive Weather Map New forecast layout! Learn more

10-Day Weather Forecast

Advertisements
Track Severe Weather on mobile